Time;durP1;ratioP1;P1;durP2;ratioP2;P2;SDS_P1;SDS_P2;PMS_P1;PMS_P2;Temp;Humidity;BMP_temperature;BMP_pressure;BME280_temperature;BME280_humidity;BME280_pressure;Samples;Min_cycle;Max_cycle;Signal;HPM_P1;HPM_P2
2022/11/01 00:01:39;;;;;;;35.20;29.47;;;;;;;6.74;100.00;97090.66;5007826;28;20498;-67
2022/11/01 00:04:07;;;;;;;28.43;25.47;;;;;;;6.73;100.00;97100.34;5010150;28;20850;-67
2022/11/01 00:06:35;;;;;;;22.70;20.50;;;;;;;6.76;100.00;97102.66;5008952;28;21577;-66
2022/11/01 00:09:04;;;;;;;20.27;18.30;;;;;;;6.77;100.00;97111.41;5010256;28;20410;-68
2022/11/01 00:11:33;;;;;;;20.37;18.43;;;;;;;6.79;100.00;97115.50;4968467;28;20267;-68
2022/11/01 00:14:03;;;;;;;21.93;19.67;;;;;;;6.83;100.00;97115.19;4989992;28;20484;-64
2022/11/01 00:16:31;;;;;;;28.80;25.93;;;;;;;6.77;100.00;97121.94;5007293;28;20218;-67
2022/11/01 00:18:59;;;;;;;23.00;20.80;;;;;;;6.75;100.00;97118.63;5008048;28;20403;-67
2022/11/01 00:21:27;;;;;;;20.30;18.43;;;;;;;6.71;100.00;97122.56;5006706;28;20199;-63
2022/11/01 00:23:55;;;;;;;23.93;20.87;;;;;;;6.76;100.00;97129.00;5011732;28;20895;-63
2022/11/01 00:26:25;;;;;;;23.57;21.17;;;;;;;6.83;100.00;97141.53;4963374;28;20343;-63
2022/11/01 00:28:54;;;;;;;33.13;25.87;;;;;;;6.80;100.00;97129.50;4976342;28;20533;-65
2022/11/01 00:31:23;;;;;;;28.73;25.47;;;;;;;6.61;100.00;97128.78;5006923;28;20770;-66
2022/11/01 00:33:52;;;;;;;26.17;23.53;;;;;;;6.64;100.00;97143.44;5006134;28;21548;-66
2022/11/01 00:36:20;;;;;;;24.50;22.13;;;;;;;6.71;100.00;97144.44;4980192;28;20212;-63
2022/11/01 00:38:50;;;;;;;27.43;22.00;;;;;;;6.65;100.00;97135.41;5007024;28;20436;-62
2022/11/01 00:41:19;;;;;;;23.23;21.07;;;;;;;6.70;100.00;97136.72;4990212;28;20673;-64
2022/11/01 00:43:48;;;;;;;25.50;22.77;;;;;;;6.73;100.00;97125.88;4968079;28;20440;-66
2022/11/01 00:46:16;;;;;;;29.23;25.80;;;;;;;6.57;100.00;97126.66;5010985;28;20230;-67
2022/11/01 00:48:46;;;;;;;26.13;23.43;;;;;;;6.56;100.00;97131.06;5006438;28;20268;-65
2022/11/01 00:51:14;;;;;;;33.13;22.60;;;;;;;6.54;100.00;97117.25;5011223;28;20890;-67
2022/11/01 00:53:42;;;;;;;22.33;20.07;;;;;;;6.62;100.00;97125.16;5006424;28;20214;-66
2022/11/01 00:56:10;;;;;;;22.87;20.63;;;;;;;6.64;100.00;97125.84;4992451;28;20238;-66
2022/11/01 00:58:38;;;;;;;25.77;23.27;;;;;;;6.58;100.00;97113.31;4964219;28;20235;-67
2022/11/01 01:01:06;;;;;;;24.70;22.60;;;;;;;6.61;100.00;97115.63;5010272;28;20226;-67
2022/11/01 01:03:35;;;;;;;25.17;22.53;;;;;;;6.68;100.00;97117.63;5006083;28;20336;-67
2022/11/01 01:09:52;;;;;;;21.57;19.37;;;;;;;6.63;100.00;97115.47;5012555;28;20608;-67
2022/11/01 01:12:21;;;;;;;22.93;20.90;;;;;;;6.62;100.00;97111.19;4951121;28;20715;-64
2022/11/01 01:14:49;;;;;;;22.67;20.53;;;;;;;6.62;100.00;97109.38;5012417;28;20359;-66
2022/11/01 01:17:18;;;;;;;22.37;20.07;;;;;;;6.67;100.00;97111.53;5009493;28;20405;-67
2022/11/01 01:19:46;;;;;;;24.23;21.63;;;;;;;6.60;100.00;97116.59;5014376;28;20670;-66
2022/11/01 01:22:14;;;;;;;21.47;19.67;;;;;;;6.53;100.00;97123.50;5010433;28;20206;-65
2022/11/01 01:24:44;;;;;;;21.40;19.50;;;;;;;6.38;100.00;97112.75;5014073;28;20223;-64
2022/11/01 01:27:15;;;;;;;20.23;18.27;;;;;;;6.41;100.00;97122.97;4971757;28;22306;-63
2022/11/01 01:29:44;;;;;;;22.00;19.93;;;;;;;6.34;100.00;97112.25;5013424;28;20762;-65
2022/11/01 01:32:13;;;;;;;22.60;18.70;;;;;;;6.29;100.00;97111.91;5010888;28;20371;-64
2022/11/01 01:34:41;;;;;;;20.60;18.60;;;;;;;6.30;100.00;97105.66;5014003;28;20198;-66
2022/11/01 01:37:10;;;;;;;20.23;18.47;;;;;;;6.35;100.00;97102.53;5010593;28;20598;-66
2022/11/01 01:39:38;;;;;;;20.87;19.03;;;;;;;6.40;100.00;97099.44;5012334;28;20272;-68
2022/11/01 01:42:17;;;;;;;21.27;19.07;;;;;;;6.32;100.00;97098.44;5011306;28;20207;-67
2022/11/01 01:45:42;;;;;;;20.30;18.20;;;;;;;6.41;100.00;97093.19;4969555;28;20235;-68
2022/11/01 01:48:15;;;;;;;19.33;17.43;;;;;;;6.42;100.00;97086.94;4937881;28;20921;-67
2022/11/01 01:50:47;;;;;;;19.50;17.43;;;;;;;6.42;100.00;97079.06;4942801;28;20305;-68
2022/11/01 01:53:20;;;;;;;18.70;16.97;;;;;;;6.45;100.00;97076.09;4928898;28;20355;-66
2022/11/01 01:55:52;;;;;;;22.37;18.23;;;;;;;6.40;100.00;97071.31;4941814;28;20211;-66
2022/11/01 01:58:23;;;;;;;28.10;18.43;;;;;;;6.42;100.00;97071.16;4937519;28;20609;-65
2022/11/01 02:00:53;;;;;;;30.83;18.40;;;;;;;6.41;100.00;97067.69;4900814;28;20404;-67
2022/11/01 02:03:22;;;;;;;20.90;18.20;;;;;;;6.42;100.00;97060.63;4938070;28;21819;-69
2022/11/01 02:05:53;;;;;;;21.23;17.43;;;;;;;6.35;100.00;97063.06;4940985;28;20743;-64
2022/11/01 02:08:26;;;;;;;20.80;17.30;;;;;;;6.37;100.00;97059.31;4936614;28;20225;-68
2022/11/01 02:10:56;;;;;;;19.80;17.70;;;;;;;6.37;100.00;97059.31;4940326;28;20202;-64
2022/11/01 02:13:26;;;;;;;34.97;20.50;;;;;;;6.34;100.00;97049.09;4936478;28;20365;-65
2022/11/01 02:16:04;;;;;;;20.53;18.63;;;;;;;6.36;100.00;97054.19;4902602;28;20693;-66
2022/11/01 02:18:40;;;;;;;17.67;16.07;;;;;;;6.36;100.00;97055.03;4938570;28;20321;-65
2022/11/01 02:21:40;;;;;;;20.60;17.23;;;;;;;6.43;100.00;97060.47;4937136;28;20209;-66
2022/11/01 02:24:24;;;;;;;17.80;16.10;;;;;;;6.43;100.00;97064.91;4973871;28;20207;-66
2022/11/01 02:27:27;;;;;;;18.30;16.70;;;;;;;6.44;100.00;97069.19;5014208;28;20704;-63
2022/11/01 02:30:22;;;;;;;18.27;16.77;;;;;;;6.47;100.00;97074.13;4953822;28;20213;-65
2022/11/01 02:33:02;;;;;;;18.30;16.60;;;;;;;6.45;100.00;97084.00;4930827;28;20398;-67
2022/11/01 02:35:40;;;;;;;17.23;15.80;;;;;;;6.48;100.00;97091.56;4857631;28;20393;-62
2022/11/01 02:38:11;;;;;;;17.40;16.00;;;;;;;6.55;100.00;97095.19;4931114;28;20229;-62
2022/11/01 02:40:43;;;;;;;18.00;16.23;;;;;;;6.52;100.00;97103.44;4909576;28;20214;-66
2022/11/01 02:43:16;;;;;;;18.47;16.90;;;;;;;6.56;100.00;97104.75;4930300;28;20209;-63
2022/11/01 02:45:47;;;;;;;18.23;16.70;;;;;;;6.53;100.00;97112.97;4929599;28;20432;-62
2022/11/01 02:48:19;;;;;;;18.77;17.17;;;;;;;6.61;100.00;97120.06;4920857;28;20673;-65
2022/11/01 02:50:51;;;;;;;20.10;18.20;;;;;;;6.57;100.00;97118.75;4912799;28;20494;-64
2022/11/01 02:53:19;;;;;;;19.57;17.97;;;;;;;6.61;100.00;97122.72;4929774;28;20206;-64
2022/11/01 02:55:47;;;;;;;26.53;19.27;;;;;;;6.61;100.00;97126.16;4929458;28;20257;-66
2022/11/01 02:58:21;;;;;;;21.30;19.10;;;;;;;6.57;100.00;97109.03;4912259;28;20800;-63
2022/11/01 03:00:49;;;;;;;18.97;17.20;;;;;;;6.72;100.00;97124.22;4929717;28;20587;-64
2022/11/01 03:03:21;;;;;;;21.33;19.23;;;;;;;6.70;100.00;97118.28;4929368;28;20210;-64
2022/11/01 03:05:57;;;;;;;20.70;18.63;;;;;;;6.74;100.00;97124.88;4896911;28;20520;-63
2022/11/01 03:08:28;;;;;;;21.30;18.43;;;;;;;6.75;100.00;97129.97;4968200;28;20219;-64
2022/11/01 03:11:04;;;;;;;39.33;19.50;;;;;;;6.74;100.00;97117.78;5007035;28;20210;-62
2022/11/01 03:13:53;;;;;;;22.50;20.13;;;;;;;6.70;100.00;97120.94;4991088;28;20203;-66
2022/11/01 03:16:29;;;;;;;24.43;20.23;;;;;;;6.72;100.00;97132.13;5010403;28;20453;-62
2022/11/01 03:19:26;;;;;;;22.43;20.10;;;;;;;6.77;100.00;97135.09;5007453;28;20234;-63
2022/11/01 03:22:00;;;;;;;24.63;18.83;;;;;;;6.76;100.00;97136.88;5007668;28;20912;-63
2022/11/01 03:24:29;;;;;;;21.87;19.83;;;;;;;6.83;100.00;97129.19;5008547;28;20207;-59
2022/11/01 03:27:02;;;;;;;23.00;20.70;;;;;;;6.90;100.00;97119.63;5010701;28;20230;-56
2022/11/01 03:29:31;;;;;;;23.07;20.67;;;;;;;6.87;100.00;97119.97;4985597;28;20242;-58
2022/11/01 03:32:01;;;;;;;23.83;20.57;;;;;;;6.95;100.00;97130.50;5010841;28;20207;-60
2022/11/01 03:34:33;;;;;;;32.13;22.30;;;;;;;6.93;100.00;97121.94;4968171;28;20214;-57
2022/11/01 03:37:04;;;;;;;27.10;21.80;;;;;;;6.97;100.00;97132.16;4985494;28;20555;-68
2022/11/01 03:39:36;;;;;;;31.77;22.30;;;;;;;6.96;100.00;97131.34;5011426;28;20628;-65
2022/11/01 03:42:06;;;;;;;31.80;23.30;;;;;;;6.98;100.00;97136.44;4990565;28;21122;-64
2022/11/01 03:44:38;;;;;;;33.70;24.83;;;;;;;6.95;100.00;97140.22;4993617;28;20213;-65
2022/11/01 03:47:06;;;;;;;38.03;23.13;;;;;;;7.04;100.00;97141.06;5009817;28;20222;-64
2022/11/01 03:49:36;;;;;;;26.23;21.87;;;;;;;7.09;100.00;97139.59;5012455;28;20231;-64
2022/11/01 03:52:04;;;;;;;24.23;21.63;;;;;;;7.13;100.00;97134.00;4965950;28;20393;-66
2022/11/01 03:54:32;;;;;;;37.87;23.97;;;;;;;7.13;100.00;97134.00;5011124;28;20546;-65
2022/11/01 03:57:01;;;;;;;25.50;22.80;;;;;;;7.05;100.00;97125.09;4999917;28;20472;-65
2022/11/01 03:59:29;;;;;;;26.17;22.60;;;;;;;7.15;100.00;97121.47;4985338;28;20531;-65
2022/11/01 04:01:57;;;;;;;39.60;23.33;;;;;;;7.10;100.00;97135.16;5009003;28;20209;-66
2022/11/01 04:04:26;;;;;;;74.30;26.03;;;;;;;7.09;100.00;97136.94;5008569;28;20456;-66
2022/11/01 04:06:55;;;;;;;51.93;22.80;;;;;;;7.07;100.00;97146.03;4965244;28;20445;-64
2022/11/01 04:09:23;;;;;;;54.03;24.90;;;;;;;7.04;100.00;97148.97;5008847;28;20485;-62
2022/11/01 04:11:52;;;;;;;28.87;23.70;;;;;;;7.05;100.00;97143.53;5009929;28;20298;-64
2022/11/01 04:22:38;;;;;;;29.07;22.03;;;;;;;7.14;100.00;97165.47;4967716;28;20211;-62
2022/11/01 04:25:07;;;;;;;40.47;24.37;;;;;;;7.08;100.00;97164.28;5006660;28;20364;-63
2022/11/01 04:27:35;;;;;;;29.43;22.83;;;;;;;7.10;100.00;97162.31;5010637;28;20641;-63
2022/11/01 04:30:04;;;;;;;29.43;23.27;;;;;;;7.17;100.00;97173.03;4945912;28;20216;-62
2022/11/01 04:32:32;;;;;;;33.47;24.03;;;;;;;7.20;100.00;97164.81;5011404;28;20233;-64
2022/11/01 04:35:00;;;;;;;29.77;22.77;;;;;;;7.22;100.00;97169.94;5006994;28;20444;-64
2022/11/01 04:37:30;;;;;;;55.07;25.50;;;;;;;7.23;100.00;97172.38;4965903;28;20325;-63
2022/11/01 04:39:59;;;;;;;31.57;22.47;;;;;;;7.25;100.00;97177.50;4988740;28;20210;-63
2022/11/01 04:42:28;;;;;;;41.23;26.70;;;;;;;7.26;100.00;97186.22;4953885;28;20528;-62
2022/11/01 04:44:56;;;;;;;48.10;26.03;;;;;;;7.28;100.00;97184.25;5014956;28;20215;-65
2022/11/01 04:47:24;;;;;;;33.87;23.40;;;;;;;7.29;100.00;97172.72;4992520;28;20788;-62
2022/11/01 04:49:52;;;;;;;27.03;22.67;;;;;;;7.39;100.00;97178.69;5015424;28;20206;-65
2022/11/01 04:52:20;;;;;;;29.43;23.10;;;;;;;7.41;100.00;97186.41;5010989;28;21463;-63
2022/11/01 04:54:49;;;;;;;34.60;23.23;;;;;;;7.39;100.00;97183.94;5013265;28;20242;-64
2022/11/01 04:57:24;;;;;;;31.33;23.00;;;;;;;7.45;100.00;97185.09;4967388;28;20304;-62
2022/11/01 04:59:53;;;;;;;36.97;20.83;;;;;;;7.43;100.00;97192.34;5014551;28;20769;-65
2022/11/01 05:02:23;;;;;;;24.93;20.63;;;;;;;7.41;100.00;97196.94;4992697;28;21839;-62
2022/11/01 05:04:51;;;;;;;30.93;22.93;;;;;;;7.39;100.00;97194.50;5014735;28;20570;-61
2022/11/01 05:07:19;;;;;;;27.93;20.87;;;;;;;7.39;100.00;97189.22;5011084;28;21706;-63
2022/11/01 05:09:47;;;;;;;48.67;22.60;;;;;;;7.37;100.00;97189.38;5013903;28;20248;-63
2022/11/01 05:12:17;;;;;;;42.73;25.53;;;;;;;7.28;100.00;97182.44;4966477;28;20218;-66
2022/11/01 05:14:47;;;;;;;37.60;21.37;;;;;;;7.34;100.00;97183.59;5007060;28;20836;-65
2022/11/01 05:17:21;;;;;;;31.63;21.27;;;;;;;7.33;100.00;97188.03;5010198;28;20509;-62
2022/11/01 05:19:50;;;;;;;41.47;21.63;;;;;;;7.25;100.00;97185.41;4972149;28;20221;-63
2022/11/01 05:22:18;;;;;;;30.87;20.07;;;;;;;7.28;100.00;97184.25;5013759;28;20574;-63
2022/11/01 05:24:46;;;;;;;35.43;19.57;;;;;;;7.26;100.00;97181.78;5011005;28;20207;-63
2022/11/01 05:27:15;;;;;;;34.50;18.80;;;;;;;7.27;100.00;97183.44;4971398;28;20286;-61
2022/11/01 05:29:43;;;;;;;26.10;19.37;;;;;;;7.23;100.00;97187.38;5009841;28;20959;-64
2022/11/01 05:32:12;;;;;;;53.63;20.63;;;;;;;7.21;100.00;97190.16;5013429;28;20258;-63
2022/11/01 05:34:40;;;;;;;35.70;19.70;;;;;;;7.22;100.00;97194.44;4975406;28;21658;-66
2022/11/01 05:37:09;;;;;;;35.43;20.57;;;;;;;7.23;100.00;97206.63;5012270;28;20203;-64
2022/11/01 05:39:37;;;;;;;49.80;21.63;;;;;;;7.25;100.00;97209.13;5013190;28;20199;-64
2022/11/01 05:42:06;;;;;;;24.07;17.93;;;;;;;7.24;100.00;97212.75;4967905;28;20940;-66
2022/11/01 05:44:34;;;;;;;43.87;21.90;;;;;;;7.20;100.00;97217.50;5012611;28;20380;-64
2022/11/01 05:47:03;;;;;;;51.00;21.23;;;;;;;7.22;100.00;97231.34;5012317;28;20896;-63
2022/11/01 05:49:33;;;;;;;28.07;20.10;;;;;;;7.22;100.00;97227.91;4992828;28;20557;-64
2022/11/01 05:52:01;;;;;;;32.67;19.97;;;;;;;7.29;100.00;97228.06;4996188;28;20715;-65
2022/11/01 05:54:29;;;;;;;28.47;20.43;;;;;;;7.35;100.00;97225.59;5013319;28;20969;-64
2022/11/01 05:56:57;;;;;;;33.70;21.93;;;;;;;7.37;100.00;97222.78;5012836;28;20207;-64
2022/11/01 05:59:26;;;;;;;35.53;19.87;;;;;;;7.38;100.00;97222.66;4975091;28;20337;-62
2022/11/01 06:01:54;;;;;;;34.87;21.50;;;;;;;7.42;100.00;97238.13;5012343;28;20207;-60
2022/11/01 06:04:22;;;;;;;32.80;21.13;;;;;;;7.41;100.00;97242.59;5013532;28;20511;-63
2022/11/01 06:06:52;;;;;;;32.50;21.23;;;;;;;7.36;100.00;97253.63;4992355;28;20235;-62
2022/11/01 06:09:20;;;;;;;34.70;21.50;;;;;;;7.38;100.00;97251.63;5014979;28;20983;-64
2022/11/01 06:11:48;;;;;;;32.97;20.63;;;;;;;7.37;100.00;97239.44;5013603;28;20726;-62
2022/11/01 06:14:16;;;;;;;32.87;20.67;;;;;;;7.45;100.00;97245.72;4973758;28;20211;-62
2022/11/01 06:16:44;;;;;;;35.90;20.90;;;;;;;7.46;100.00;97244.72;5013585;28;20404;-64
2022/11/01 06:19:13;;;;;;;32.10;19.90;;;;;;;7.49;100.00;97255.78;5013705;28;20230;-61
2022/11/01 06:21:41;;;;;;;32.83;20.97;;;;;;;7.48;100.00;97269.13;4994969;28;20385;-60
2022/11/01 06:24:12;;;;;;;59.57;21.63;;;;;;;7.39;100.00;97276.19;5014435;28;20214;-62
2022/11/01 06:26:40;;;;;;;26.00;19.60;;;;;;;7.45;100.00;97272.91;5013184;28;20207;-65
2022/11/01 06:29:09;;;;;;;31.60;21.07;;;;;;;7.45;100.00;97279.97;5013417;28;20222;-66
2022/11/01 06:31:37;;;;;;;35.57;21.97;;;;;;;7.39;100.00;97287.56;4954923;28;20218;-63
2022/11/01 06:34:05;;;;;;;29.50;21.27;;;;;;;7.50;100.00;97288.22;5011549;28;20208;-66
2022/11/01 06:36:33;;;;;;;27.20;21.57;;;;;;;7.55;100.00;97300.94;4994741;28;20613;-63
2022/11/01 06:39:01;;;;;;;33.07;21.97;;;;;;;7.53;100.00;97296.66;5011938;28;20223;-68
2022/11/01 06:41:31;;;;;;;27.37;22.53;;;;;;;7.51;100.00;97303.06;5013658;28;20247;-65
2022/11/01 06:43:59;;;;;;;26.23;21.30;;;;;;;7.55;100.00;97300.94;5010161;28;20429;-65
2022/11/01 06:46:27;;;;;;;30.10;23.00;;;;;;;7.66;100.00;97301.47;4970772;28;20219;-66
2022/11/01 06:48:55;;;;;;;32.50;22.57;;;;;;;7.70;100.00;97296.66;4941112;28;20235;-65
2022/11/01 06:51:23;;;;;;;29.67;22.40;;;;;;;7.81;100.00;97306.09;4998160;28;23052;-66
2022/11/01 06:53:52;;;;;;;36.27;22.10;;;;;;;7.81;100.00;97314.84;4994954;28;20214;-64
2022/11/01 06:56:20;;;;;;;29.60;22.00;;;;;;;7.84;100.00;97329.50;5012988;28;20211;-64
2022/11/01 06:58:50;;;;;;;29.63;21.87;;;;;;;7.87;100.00;97323.09;5014110;28;21148;-61
2022/11/01 07:01:20;;;;;;;38.63;23.43;;;;;;;7.94;100.00;97332.00;5007624;28;20455;-64
2022/11/01 07:03:50;;;;;;;32.10;23.10;;;;;;;7.90;100.00;97344.66;4972576;28;20222;-63
2022/11/01 07:06:19;;;;;;;45.93;23.50;;;;;;;7.87;100.00;97358.19;5013005;28;20211;-61
2022/11/01 07:08:47;;;;;;;34.57;21.57;;;;;;;7.94;100.00;97361.00;5013967;28;20246;-66
2022/11/01 07:11:18;;;;;;;33.03;22.10;;;;;;;7.94;100.00;97366.28;4993803;28;20394;-65
2022/11/01 07:13:47;;;;;;;28.90;21.93;;;;;;;7.91;100.00;97372.72;5015289;28;20785;-66
2022/11/01 07:16:16;;;;;;;33.47;21.53;;;;;;;7.94;100.00;97375.00;5010864;28;20230;-66
2022/11/01 07:18:44;;;;;;;24.20;19.70;;;;;;;8.09;100.00;97364.66;4976195;28;20783;-65
2022/11/01 07:21:13;;;;;;;30.27;22.30;;;;;;;8.04;100.00;97368.78;4990635;28;20207;-65
2022/11/01 07:23:41;;;;;;;31.30;21.87;;;;;;;8.07;100.00;97373.72;5008052;28;20666;-63
2022/11/01 07:26:09;;;;;;;25.60;21.37;;;;;;;8.05;100.00;97365.97;4995548;28;20214;-66
2022/11/01 07:28:38;;;;;;;38.17;21.27;;;;;;;8.16;100.00;97372.75;5009401;28;20426;-62
2022/11/01 07:31:06;;;;;;;25.67;21.30;;;;;;;8.20;100.00;97375.91;5014529;28;20272;-62
2022/11/01 07:33:36;;;;;;;32.50;20.67;;;;;;;8.29;100.00;97374.91;4981773;28;20215;-63
2022/11/01 07:36:05;;;;;;;37.93;26.00;;;;;;;8.42;100.00;97379.69;4996656;28;20211;-64
2022/11/01 07:38:33;;;;;;;29.73;22.83;;;;;;;8.44;100.00;97377.72;5019981;28;20239;-65
2022/11/01 07:41:03;;;;;;;25.23;21.17;;;;;;;8.56;100.00;97386.16;4979723;28;20222;-63
2022/11/01 07:43:31;;;;;;;27.93;21.93;;;;;;;8.53;100.00;97371.47;5015512;28;21011;-64
2022/11/01 07:46:02;;;;;;;30.17;23.07;;;;;;;8.54;100.00;97367.00;5010824;28;20674;-63
2022/11/01 07:48:35;;;;;;;30.10;24.07;;;;;;;8.61;100.00;97378.56;5015478;28;20724;-64
2022/11/01 07:51:06;;;;;;;27.93;22.83;;;;;;;8.74;100.00;97374.56;4965219;28;20219;-64
2022/11/01 07:53:34;;;;;;;26.97;22.63;;;;;;;8.69;100.00;97378.53;5016796;28;20207;-64
2022/11/01 07:56:03;;;;;;;26.87;22.47;;;;;;;8.78;100.00;97373.25;4987980;28;22081;-63
2022/11/01 07:58:31;;;;;;;24.93;22.33;;;;;;;8.80;100.00;97382.66;5010078;28;20219;-64
2022/11/01 08:01:00;;;;;;;24.30;21.87;;;;;;;8.79;100.00;97374.88;5011830;28;20265;-61
2022/11/01 08:03:29;;;;;;;30.23;22.90;;;;;;;8.78;100.00;97376.72;5012251;28;20857;-62
2022/11/01 08:05:57;;;;;;;21.83;19.63;;;;;;;8.85;100.00;97390.06;4976950;28;20368;-64
2022/11/01 08:08:27;;;;;;;25.00;21.27;;;;;;;8.75;100.00;97400.00;5014523;28;20246;-64
2022/11/01 08:10:55;;;;;;;27.40;21.63;;;;;;;8.67;100.00;97399.03;4979937;28;21201;-64
2022/11/01 08:13:25;;;;;;;21.73;19.63;;;;;;;8.66;100.00;97393.88;4997664;28;20211;-64
2022/11/01 08:15:53;;;;;;;22.93;20.00;;;;;;;8.68;100.00;97390.09;5014107;28;20203;-62
2022/11/01 08:18:23;;;;;;;20.37;18.57;;;;;;;8.61;100.00;97389.13;5013555;28;20230;-65
2022/11/01 08:20:51;;;;;;;19.97;17.93;;;;;;;8.65;100.00;97390.44;4973346;28;20211;-64
2022/11/01 08:23:20;;;;;;;22.47;18.63;;;;;;;8.57;100.00;97400.16;5012116;28;20208;-63
2022/11/01 08:25:50;;;;;;;20.23;18.40;;;;;;;8.67;100.00;97388.44;4991725;28;20250;-61
2022/11/01 08:28:20;;;;;;;19.97;18.17;;;;;;;8.68;100.00;97398.03;4994697;28;20230;-64
2022/11/01 08:30:49;;;;;;;27.00;24.10;;;;;;;8.60;100.00;97384.84;5011491;28;21665;-66
2022/11/01 08:33:17;;;;;;;24.23;20.20;;;;;;;8.60;100.00;97392.75;5012918;28;20205;-67
2022/11/01 08:35:46;;;;;;;25.63;19.13;;;;;;;8.64;100.00;97380.03;5009333;28;20199;-64
2022/11/01 08:38:18;;;;;;;38.27;20.20;;;;;;;8.69;100.00;97388.28;4974139;28;20219;-65
2022/11/01 08:40:46;;;;;;;27.03;18.60;;;;;;;8.69;100.00;97385.63;4994574;28;20397;-65
2022/11/01 08:43:16;;;;;;;26.17;19.33;;;;;;;8.57;100.00;97382.53;4999195;28;20217;-65
2022/11/01 08:45:45;;;;;;;19.77;17.67;;;;;;;8.65;100.00;97384.31;4990979;28;20757;-61
2022/11/01 08:48:13;;;;;;;32.17;19.83;;;;;;;8.70;100.00;97392.56;5013252;28;20230;-64
2022/11/01 08:50:42;;;;;;;30.37;18.83;;;;;;;8.68;100.00;97394.53;5009376;28;20202;-63
2022/11/01 08:53:12;;;;;;;20.50;18.07;;;;;;;8.72;100.00;97403.81;4976115;28;21491;-65
2022/11/01 08:55:40;;;;;;;27.53;18.97;;;;;;;8.70;100.00;97426.91;4950768;28;20222;-62
2022/11/01 08:58:09;;;;;;;19.63;17.63;;;;;;;8.86;100.00;97423.41;5009871;28;20900;-62
2022/11/01 09:00:39;;;;;;;18.40;16.67;;;;;;;9.16;100.00;97418.41;5012016;28;20207;-63
2022/11/01 09:03:07;;;;;;;19.43;17.53;;;;;;;9.41;100.00;97427.09;4991717;28;20226;-65
2022/11/01 09:05:35;;;;;;;18.00;16.40;;;;;;;9.58;100.00;97429.69;5010928;28;20211;-64
2022/11/01 09:08:06;;;;;;;17.27;15.57;;;;;;;9.51;100.00;97418.16;5009400;28;20223;-63
2022/11/01 09:10:35;;;;;;;16.47;15.07;;;;;;;9.44;100.00;97418.00;4952881;28;20649;-66
2022/11/01 09:13:04;;;;;;;16.67;15.23;;;;;;;9.62;100.00;97425.72;5006207;28;20203;-63
2022/11/01 09:15:34;;;;;;;16.37;14.90;;;;;;;9.62;100.00;97431.00;5011957;28;20199;-66
2022/11/01 09:18:07;;;;;;;17.23;15.73;;;;;;;9.62;100.00;97423.06;5009016;28;20305;-63
2022/11/01 09:20:35;;;;;;;14.83;13.63;;;;;;;9.64;100.00;97418.44;5012297;28;20207;-64
2022/11/01 09:23:03;;;;;;;15.10;13.90;;;;;;;9.79;100.00;97421.19;5010712;28;20222;-64
2022/11/01 09:25:32;;;;;;;15.53;14.23;;;;;;;9.63;100.00;97424.72;4973362;28;20215;-62
2022/11/01 09:28:00;;;;;;;14.00;12.90;;;;;;;9.62;100.00;97428.34;5011869;28;20227;-67
2022/11/01 09:30:29;;;;;;;14.20;12.97;;;;;;;9.73;100.00;97432.44;5014345;28;20233;-65
2022/11/01 09:32:57;;;;;;;13.83;12.73;;;;;;;9.63;100.00;97429.16;5011501;28;20210;-64
2022/11/01 09:35:28;;;;;;;15.37;14.17;;;;;;;9.54;100.00;97423.09;5012490;28;20199;-67
2022/11/01 09:38:00;;;;;;;15.67;14.37;;;;;;;9.68;100.00;97425.03;5012569;28;20230;-68
2022/11/01 09:40:31;;;;;;;15.20;13.90;;;;;;;9.69;100.00;97418.72;4974924;28;21258;-67
2022/11/01 09:43:00;;;;;;;18.10;16.40;;;;;;;9.76;100.00;97428.63;4990499;28;20211;-65
2022/11/01 09:45:31;;;;;;;17.98;16.58;;;;;;;10.04;100.00;97433.44;4990040;28;20547;-65
2022/11/01 09:48:01;;;;;;;15.23;14.03;;;;;;;10.07;100.00;97436.59;5015308;28;20436;-62
2022/11/01 09:50:33;;;;;;;15.93;14.33;;;;;;;10.16;100.00;97444.47;4994836;28;20234;-64
2022/11/01 09:53:03;;;;;;;14.37;13.17;;;;;;;10.03;100.00;97443.19;5014171;28;20203;-65
2022/11/01 09:55:40;;;;;;;14.87;13.57;;;;;;;10.38;100.00;97433.06;4975059;28;21512;-63
2022/11/01 09:58:18;;;;;;;14.07;12.87;;;;;;;10.74;100.00;97436.13;5014353;28;20269;-66
2022/11/01 10:00:52;;;;;;;13.23;12.23;;;;;;;11.02;100.00;97436.38;5014936;28;22385;-63
2022/11/01 10:03:39;;;;;;;14.00;12.83;;;;;;;10.97;100.00;97428.97;5015439;28;20477;-64
2022/11/01 10:06:15;;;;;;;14.57;13.27;;;;;;;11.15;100.00;97431.28;4993261;28;20214;-66
2022/11/01 10:08:53;;;;;;;14.10;12.90;;;;;;;11.21;100.00;97439.50;5012507;28;20227;-63
2022/11/01 10:11:45;;;;;;;14.37;13.27;;;;;;;11.25;100.00;97436.31;4977845;28;20788;-65
2022/11/01 10:14:22;;;;;;;15.03;13.73;;;;;;;11.41;100.00;97442.44;5010976;28;20317;-64
2022/11/01 10:16:58;;;;;;;14.53;13.13;;;;;;;11.25;100.00;97446.09;5016340;28;20213;-64
2022/11/01 10:19:31;;;;;;;14.40;13.17;;;;;;;11.40;100.00;97451.41;5015120;28;20317;-64
2022/11/01 10:22:05;;;;;;;14.67;13.37;;;;;;;11.55;100.00;97449.59;4996434;28;20215;-64
2022/11/01 10:24:38;;;;;;;14.43;13.23;;;;;;;11.61;100.00;97436.59;5013840;28;20206;-67
2022/11/01 10:27:13;;;;;;;14.70;13.30;;;;;;;11.53;100.00;97432.19;4979348;28;20241;-66
2022/11/01 10:29:44;;;;;;;15.43;14.13;;;;;;;11.41;100.00;97437.97;5014669;28;20222;-66
2022/11/01 10:32:24;;;;;;;14.57;13.27;;;;;;;11.56;100.00;97440.63;5013376;28;20207;-63
2022/11/01 10:34:54;;;;;;;14.13;12.57;;;;;;;11.49;100.00;97441.53;5006327;28;20211;-64
2022/11/01 10:37:29;;;;;;;15.03;13.73;;;;;;;11.64;100.00;97433.56;5005256;28;20215;-65
2022/11/01 10:40:01;;;;;;;14.43;13.23;;;;;;;11.64;100.00;97430.91;5012987;28;20770;-64
2022/11/01 10:42:35;;;;;;;15.07;13.87;;;;;;;11.80;100.00;97421.94;5012698;28;20203;-59
2022/11/01 10:45:07;;;;;;;19.07;17.37;;;;;;;11.77;100.00;97415.16;4971380;28;20880;-61
2022/11/01 10:47:35;;;;;;;16.77;15.27;;;;;;;11.76;100.00;97418.00;5014131;28;20725;-59
2022/11/01 10:50:09;;;;;;;15.97;14.57;;;;;;;11.72;100.00;97410.38;4992213;28;20231;-57
2022/11/01 10:52:46;;;;;;;16.13;14.80;;;;;;;11.92;100.00;97430.22;5012671;28;20458;-58
2022/11/01 10:55:18;;;;;;;16.05;14.75;;;;;;;12.10;100.00;97427.19;5010715;28;20477;-60
2022/11/01 10:57:50;;;;;;;13.87;12.67;;;;;;;12.20;100.00;97421.56;5012417;28;20234;-65
2022/11/01 11:00:21;;;;;;;14.87;13.57;;;;;;;12.25;100.00;97417.34;4953470;28;20901;-62
2022/11/01 11:02:51;;;;;;;14.03;12.93;;;;;;;11.94;100.00;97425.56;4980149;28;20291;-64
2022/11/01 11:05:21;;;;;;;14.53;13.37;;;;;;;11.94;100.00;97426.38;4991542;28;20199;-63
2022/11/01 11:07:50;;;;;;;14.23;13.00;;;;;;;11.96;100.00;97420.88;4974936;28;20226;-63
2022/11/01 11:10:21;;;;;;;15.30;13.90;;;;;;;11.87;100.00;97418.31;5010476;28;20262;-64
2022/11/01 11:12:54;;;;;;;16.37;14.70;;;;;;;11.52;100.00;97422.59;4991923;28;20217;-64
2022/11/01 11:15:26;;;;;;;16.40;14.87;;;;;;;11.37;100.00;97431.41;4988252;28;20225;-60
2022/11/01 11:18:02;;;;;;;16.37;14.97;;;;;;;11.02;100.00;97425.78;5010698;28;20226;-60
2022/11/01 11:20:31;;;;;;;26.57;23.73;;;;;;;11.05;100.00;97428.06;4964324;28;20210;-62
2022/11/01 11:23:03;;;;;;;17.37;15.83;;;;;;;10.95;100.00;97428.31;4982921;28;20206;-60
2022/11/01 11:25:35;;;;;;;17.20;15.47;;;;;;;11.13;100.00;97432.44;4991336;28;20207;-58
2022/11/01 11:28:04;;;;;;;18.10;16.40;;;;;;;11.12;100.00;97434.28;5014190;28;20226;-59
2022/11/01 11:30:34;;;;;;;18.43;16.73;;;;;;;11.12;100.00;97430.81;5012078;28;20808;-62
2022/11/01 11:33:03;;;;;;;17.87;16.27;;;;;;;11.11;100.00;97431.81;4975801;28;20210;-59
2022/11/01 11:35:32;;;;;;;18.90;17.00;;;;;;;11.31;100.00;97426.78;5012454;28;21164;-59
2022/11/01 11:38:04;;;;;;;18.40;16.70;;;;;;;11.12;100.00;97420.19;5009731;28;20230;-59
2022/11/01 11:40:42;;;;;;;19.93;17.90;;;;;;;11.06;100.00;97423.56;5008308;28;21234;-59
2022/11/01 11:43:23;;;;;;;20.87;18.77;;;;;;;11.07;100.00;97410.16;5001330;28;20207;-61
2022/11/01 11:46:13;;;;;;;20.10;18.10;;;;;;;10.93;100.00;97418.88;5008399;28;20891;-60